Time;durP1;ratioP1;P1;durP2;ratioP2;P2;SDS_P1;SDS_P2;PMS_P1;PMS_P2;Temp;Humidity;BMP_temperature;BMP_pressure;BME280_temperature;BME280_humidity;BME280_pressure;Samples;Min_cycle;Max_cycle;Signal;HPM_P1;HPM_P2
2023/10/27 00:01:12;;;;;;;14.38;9.02;;;10.40;99.90;;;;;;5040205;28;20087;-81
2023/10/27 00:03:37;;;;;;;16.73;8.80;;;10.50;99.90;;;;;;5041767;28;20018;-80
2023/10/27 00:06:03;;;;;;;14.60;8.75;;;10.40;99.90;;;;;;5041400;28;20018;-78
2023/10/27 00:08:29;;;;;;;14.90;9.15;;;10.40;99.90;;;;;;5041503;28;20060;-78
2023/10/27 00:10:54;;;;;;;16.25;8.18;;;10.40;99.90;;;;;;5041309;28;20049;-77
2023/10/27 00:13:20;;;;;;;15.00;8.50;;;10.40;99.90;;;;;;5037605;28;20025;-77
2023/10/27 00:15:46;;;;;;;15.73;8.82;;;10.40;99.90;;;;;;5039373;28;20022;-77
2023/10/27 00:18:13;;;;;;;14.68;8.35;;;10.40;99.90;;;;;;5040915;28;20047;-78
2023/10/27 00:20:39;;;;;;;15.45;8.85;;;10.40;99.90;;;;;;5041832;28;20026;-78
2023/10/27 00:23:05;;;;;;;14.73;8.93;;;10.40;99.90;;;;;;5039876;28;20041;-78
2023/10/27 00:25:30;;;;;;;14.32;8.60;;;10.50;99.90;;;;;;5040144;28;20039;-78
2023/10/27 00:27:56;;;;;;;14.32;8.80;;;10.50;99.90;;;;;;5041197;28;20088;-78
2023/10/27 00:30:22;;;;;;;16.30;8.60;;;10.40;99.90;;;;;;5040792;28;20041;-79
2023/10/27 00:32:48;;;;;;;13.48;8.32;;;10.40;99.90;;;;;;5040604;28;20103;-79
2023/10/27 00:35:14;;;;;;;14.25;8.80;;;10.40;99.90;;;;;;5039381;28;20029;-79
2023/10/27 00:37:40;;;;;;;14.27;8.75;;;10.30;99.90;;;;;;5040317;28;20409;-79
2023/10/27 00:40:07;;;;;;;12.68;8.77;;;10.40;99.90;;;;;;5040621;28;20104;-78
2023/10/27 00:42:33;;;;;;;14.23;8.38;;;10.40;99.90;;;;;;5040141;28;20056;-78
2023/10/27 00:44:58;;;;;;;14.65;7.65;;;10.40;99.90;;;;;;5039346;28;20037;-78
2023/10/27 00:47:24;;;;;;;12.65;8.05;;;10.40;99.90;;;;;;5039642;28;20025;-78
2023/10/27 00:49:51;;;;;;;17.42;7.97;;;10.40;99.90;;;;;;5039544;28;20033;-78
2023/10/27 00:52:18;;;;;;;14.95;7.78;;;10.40;99.90;;;;;;5039654;28;20029;-78
2023/10/27 00:54:47;;;;;;;15.88;7.65;;;10.40;99.90;;;;;;5040050;28;20037;-76
2023/10/27 00:57:14;;;;;;;13.85;7.93;;;10.40;99.90;;;;;;5038422;28;20026;-77
2023/10/27 00:59:41;;;;;;;14.02;8.05;;;10.30;99.90;;;;;;5038933;28;20067;-77
2023/10/27 01:02:06;;;;;;;14.95;7.90;;;10.30;99.90;;;;;;5040809;28;20108;-77
2023/10/27 01:04:32;;;;;;;12.30;7.53;;;10.40;99.90;;;;;;5040310;28;20147;-78
2023/10/27 01:06:58;;;;;;;11.85;7.28;;;10.30;99.90;;;;;;5039094;28;20024;-78
2023/10/27 01:09:24;;;;;;;11.65;7.15;;;10.40;99.90;;;;;;5038772;28;20132;-77
2023/10/27 01:11:50;;;;;;;11.10;7.32;;;10.40;99.90;;;;;;5039410;28;20022;-77
2023/10/27 01:14:17;;;;;;;12.00;7.35;;;10.40;99.90;;;;;;5040627;28;20175;-78
2023/10/27 01:16:43;;;;;;;11.23;7.22;;;10.40;99.90;;;;;;5040992;28;20033;-77
2023/10/27 01:19:09;;;;;;;11.50;7.07;;;10.40;99.90;;;;;;5039872;28;20111;-78
2023/10/27 01:21:34;;;;;;;15.40;7.38;;;10.30;99.90;;;;;;5039368;28;20021;-78
2023/10/27 01:24:02;;;;;;;10.85;6.63;;;10.30;99.90;;;;;;5039867;28;20030;-77
2023/10/27 01:26:28;;;;;;;13.10;6.88;;;10.30;99.90;;;;;;5038426;28;20064;-78
2023/10/27 01:28:54;;;;;;;11.00;6.43;;;10.30;99.90;;;;;;5040393;28;20037;-78
2023/10/27 01:31:19;;;;;;;9.75;6.40;;;10.20;99.90;;;;;;5040271;28;20037;-77
2023/10/27 01:33:45;;;;;;;13.07;6.57;;;10.30;99.90;;;;;;5039742;28;20043;-77
2023/10/27 01:36:10;;;;;;;13.60;7.18;;;10.30;99.90;;;;;;5038259;28;20496;-78
2023/10/27 01:38:36;;;;;;;11.95;6.60;;;10.40;99.90;;;;;;5039367;28;20089;-77
2023/10/27 01:41:02;;;;;;;14.88;7.20;;;10.20;99.90;;;;;;5037514;28;20109;-77
2023/10/27 01:43:27;;;;;;;12.02;5.97;;;10.30;99.90;;;;;;5040232;28;20022;-76
2023/10/27 01:45:53;;;;;;;9.55;6.03;;;10.20;99.90;;;;;;5039333;28;20381;-78
2023/10/27 01:48:18;;;;;;;21.38;6.22;;;10.20;99.90;;;;;;5039897;28;20059;-78
2023/10/27 01:50:44;;;;;;;11.80;5.90;;;10.20;99.90;;;;;;5039878;28;20068;-78
2023/10/27 01:53:10;;;;;;;14.85;5.60;;;10.20;99.90;;;;;;5039512;28;20155;-77
2023/10/27 01:55:35;;;;;;;9.90;5.85;;;10.30;99.90;;;;;;5040169;28;20033;-77
2023/10/27 01:58:02;;;;;;;13.25;5.95;;;10.20;99.90;;;;;;5039426;28;20029;-78
2023/10/27 02:00:27;;;;;;;9.68;5.78;;;10.20;99.90;;;;;;5040404;28;20021;-77
2023/10/27 02:02:54;;;;;;;12.70;6.15;;;10.20;99.90;;;;;;5037786;28;20053;-79
2023/10/27 02:05:20;;;;;;;8.63;5.50;;;10.10;99.90;;;;;;5039753;28;20026;-79
2023/10/27 02:07:46;;;;;;;10.18;6.07;;;10.20;99.90;;;;;;5039909;28;20045;-77
2023/10/27 02:10:11;;;;;;;13.18;5.57;;;10.20;99.90;;;;;;5037985;28;20017;-76
2023/10/27 02:12:37;;;;;;;10.75;6.13;;;10.20;99.90;;;;;;5038969;28;20040;-78
2023/10/27 02:15:03;;;;;;;11.50;5.65;;;10.10;99.90;;;;;;5037835;28;20025;-76
2023/10/27 02:17:29;;;;;;;14.43;5.80;;;10.10;99.90;;;;;;5039962;28;20079;-78
2023/10/27 02:19:55;;;;;;;10.18;5.82;;;10.10;99.90;;;;;;5038193;28;20026;-77
2023/10/27 02:22:22;;;;;;;10.30;5.72;;;10.10;99.90;;;;;;5038057;28;20097;-78
2023/10/27 02:24:47;;;;;;;10.57;5.70;;;10.10;99.90;;;;;;5040234;28;20022;-79
2023/10/27 02:27:13;;;;;;;9.88;5.50;;;10.20;99.90;;;;;;5038134;28;20033;-78
2023/10/27 02:29:38;;;;;;;13.07;5.53;;;10.20;99.90;;;;;;5039747;28;20030;-77
2023/10/27 02:32:04;;;;;;;10.02;5.85;;;10.10;99.90;;;;;;5039623;28;20108;-78
2023/10/27 02:34:30;;;;;;;13.80;6.07;;;10.10;99.90;;;;;;5038536;28;20029;-77
2023/10/27 02:36:55;;;;;;;12.07;5.45;;;10.10;99.90;;;;;;5043025;28;20029;-78
2023/10/27 02:39:21;;;;;;;10.25;5.45;;;10.10;99.90;;;;;;5042076;28;20036;-77
2023/10/27 02:41:47;;;;;;;8.10;5.18;;;10.20;99.90;;;;;;5042772;28;20054;-78
2023/10/27 02:44:12;;;;;;;8.05;5.28;;;10.20;99.90;;;;;;5041927;28;20065;-77
2023/10/27 02:46:38;;;;;;;9.73;5.25;;;10.10;99.90;;;;;;5041756;28;20032;-78
2023/10/27 02:49:04;;;;;;;10.32;5.63;;;10.00;99.90;;;;;;5041185;28;20057;-77
2023/10/27 02:51:30;;;;;;;9.95;5.43;;;10.20;99.90;;;;;;5043402;28;20018;-77
2023/10/27 02:53:56;;;;;;;9.30;4.57;;;10.10;99.90;;;;;;5042998;28;20085;-78
2023/10/27 02:56:22;;;;;;;11.30;5.32;;;10.10;99.90;;;;;;5041397;28;20048;-78
2023/10/27 02:58:48;;;;;;;10.57;5.57;;;10.10;99.90;;;;;;5043246;28;20500;-78
2023/10/27 03:01:14;;;;;;;6.72;4.43;;;10.20;99.90;;;;;;5041734;28;20026;-78
2023/10/27 03:03:41;;;;;;;7.95;5.03;;;10.10;99.90;;;;;;5041434;28;20076;-77
2023/10/27 03:06:07;;;;;;;10.10;5.30;;;10.20;99.90;;;;;;5042320;28;20048;-78
2023/10/27 03:08:34;;;;;;;10.60;5.45;;;10.10;99.90;;;;;;5041040;28;20029;-78
2023/10/27 03:10:59;;;;;;;7.93;4.82;;;10.10;99.90;;;;;;5040617;28;20025;-79
2023/10/27 03:13:27;;;;;;;14.68;5.28;;;10.10;99.90;;;;;;5040775;28;20115;-79
2023/10/27 03:15:53;;;;;;;11.00;5.07;;;10.10;99.90;;;;;;5042012;28;20024;-79
2023/10/27 03:18:19;;;;;;;8.48;4.95;;;10.10;99.90;;;;;;5042646;28;20053;-77
2023/10/27 03:20:44;;;;;;;8.02;4.72;;;10.10;99.90;;;;;;5041728;28;20029;-77
2023/10/27 03:23:10;;;;;;;9.35;4.97;;;10.10;99.90;;;;;;5041056;28;20481;-76
2023/10/27 03:25:35;;;;;;;8.45;5.45;;;10.00;99.90;;;;;;5042353;28;20514;-78
2023/10/27 03:28:01;;;;;;;9.55;5.53;;;10.10;99.90;;;;;;5042184;28;20048;-77
2023/10/27 03:30:28;;;;;;;11.13;5.32;;;10.10;99.90;;;;;;5042131;28;20033;-78
2023/10/27 03:32:54;;;;;;;11.77;5.57;;;10.10;99.90;;;;;;5041190;28;20052;-78
2023/10/27 03:35:20;;;;;;;11.25;5.57;;;10.10;99.90;;;;;;5041470;28;20097;-77
2023/10/27 03:37:45;;;;;;;10.32;5.65;;;10.00;99.90;;;;;;5039024;28;20049;-78
2023/10/27 03:40:12;;;;;;;10.18;4.93;;;10.10;99.90;;;;;;5041767;28;20053;-78
2023/10/27 03:42:38;;;;;;;10.25;5.15;;;10.10;99.90;;;;;;5040217;28;20029;-78
2023/10/27 03:45:04;;;;;;;9.82;5.40;;;10.10;99.90;;;;;;5041478;28;20052;-77
2023/10/27 03:47:30;;;;;;;12.23;5.93;;;10.10;99.90;;;;;;5040635;28;20013;-77
2023/10/27 03:49:55;;;;;;;8.25;5.18;;;10.10;99.90;;;;;;5041444;28;20029;-80
2023/10/27 03:52:21;;;;;;;13.50;5.43;;;10.10;99.90;;;;;;5041968;28;20022;-80
2023/10/27 03:54:47;;;;;;;8.73;5.13;;;10.00;99.90;;;;;;5040805;28;20059;-80
2023/10/27 03:57:13;;;;;;;13.15;5.50;;;10.00;99.90;;;;;;5041704;28;20060;-79
2023/10/27 03:59:38;;;;;;;10.63;5.80;;;10.00;99.90;;;;;;5041440;28;20071;-79
2023/10/27 04:02:05;;;;;;;8.68;5.47;;;10.00;99.90;;;;;;5041781;28;20561;-78
2023/10/27 04:04:30;;;;;;;11.52;5.47;;;10.00;99.90;;;;;;5039360;28;20025;-78
2023/10/27 04:06:57;;;;;;;11.18;5.30;;;10.10;99.90;;;;;;5040253;28;20036;-79
2023/10/27 04:09:23;;;;;;;11.15;5.63;;;10.00;99.90;;;;;;5041859;28;20029;-78
2023/10/27 04:11:49;;;;;;;8.75;5.28;;;10.00;99.90;;;;;;5041373;28;20045;-79
2023/10/27 04:14:15;;;;;;;9.77;5.78;;;9.90;99.90;;;;;;5040613;28;20068;-80
2023/10/27 04:16:40;;;;;;;12.77;5.88;;;10.00;99.90;;;;;;5041847;28;20029;-78
2023/10/27 04:19:06;;;;;;;12.30;5.75;;;10.00;99.90;;;;;;5041083;28;20560;-77
2023/10/27 04:21:33;;;;;;;9.45;5.45;;;10.00;99.90;;;;;;5039811;28;20435;-80
2023/10/27 04:23:59;;;;;;;11.38;5.80;;;10.00;99.90;;;;;;5039194;28;20021;-79
2023/10/27 04:26:25;;;;;;;11.32;5.97;;;10.00;99.90;;;;;;5041133;28;20052;-78
2023/10/27 04:28:52;;;;;;;11.38;5.72;;;10.00;99.90;;;;;;5041368;28;20044;-78
2023/10/27 04:31:18;;;;;;;8.30;5.22;;;10.00;99.90;;;;;;5039484;28;20029;-78
2023/10/27 04:33:47;;;;;;;12.40;5.60;;;10.00;99.90;;;;;;5041687;28;20023;-78
2023/10/27 04:36:14;;;;;;;11.85;5.55;;;10.00;99.90;;;;;;5040852;28;20029;-79
2023/10/27 04:38:41;;;;;;;10.95;5.72;;;10.00;99.90;;;;;;5040003;28;20102;-78
2023/10/27 04:41:06;;;;;;;13.77;5.90;;;10.10;99.90;;;;;;5040929;28;20053;-77
2023/10/27 04:43:32;;;;;;;13.57;5.40;;;10.00;99.90;;;;;;5039727;28;20351;-77
2023/10/27 04:45:57;;;;;;;15.18;5.70;;;10.10;99.90;;;;;;5040597;28;20109;-78
2023/10/27 04:48:23;;;;;;;10.82;5.38;;;10.00;99.90;;;;;;5041352;28;20040;-78
2023/10/27 04:50:55;;;;;;;13.32;6.15;;;9.90;99.90;;;;;;5038120;28;20037;-78
2023/10/27 04:53:21;;;;;;;11.00;5.72;;;10.00;99.90;;;;;;5038756;28;20029;-78
2023/10/27 04:55:47;;;;;;;13.52;5.30;;;10.00;99.90;;;;;;5040125;28;20075;-79
2023/10/27 04:58:12;;;;;;;11.77;5.65;;;10.00;99.90;;;;;;5038525;28;20036;-77
2023/10/27 05:00:38;;;;;;;10.07;4.65;;;9.90;99.90;;;;;;5040478;28;20036;-78
2023/10/27 05:03:05;;;;;;;11.07;5.25;;;9.90;99.90;;;;;;5040573;28;20040;-78
2023/10/27 05:05:31;;;;;;;11.55;5.20;;;9.90;99.90;;;;;;5039329;28;20029;-78
2023/10/27 05:07:56;;;;;;;16.17;4.65;;;9.90;99.90;;;;;;5040139;28;20018;-78
2023/10/27 05:10:22;;;;;;;10.80;4.78;;;9.90;99.90;;;;;;5040525;28;20030;-75
2023/10/27 05:12:48;;;;;;;9.50;5.20;;;9.90;99.90;;;;;;5038984;28;20098;-76
2023/10/27 05:15:14;;;;;;;14.10;5.18;;;9.90;99.90;;;;;;5041002;28;20477;-76
2023/10/27 05:17:40;;;;;;;11.45;4.97;;;9.90;99.90;;;;;;5039400;28;20055;-76
2023/10/27 05:20:06;;;;;;;11.23;4.35;;;9.90;99.90;;;;;;5038476;28;20063;-75
2023/10/27 05:22:32;;;;;;;10.15;4.85;;;9.90;99.90;;;;;;5034218;28;20034;-75
2023/10/27 05:24:57;;;;;;;9.32;4.30;;;10.00;99.90;;;;;;5039880;28;20033;-75
2023/10/27 05:27:24;;;;;;;12.30;4.35;;;9.90;99.90;;;;;;5040292;28;20465;-76
2023/10/27 05:29:50;;;;;;;8.10;4.40;;;9.90;99.90;;;;;;5038571;28;20042;-76
2023/10/27 05:32:17;;;;;;;12.15;4.93;;;9.90;99.90;;;;;;5040795;28;20097;-76
2023/10/27 05:34:43;;;;;;;9.63;4.28;;;9.80;99.90;;;;;;5040585;28;20079;-76
2023/10/27 05:37:09;;;;;;;6.97;4.18;;;9.90;99.90;;;;;;5037683;28;20021;-76
2023/10/27 05:39:35;;;;;;;7.30;4.30;;;9.90;99.90;;;;;;5038224;28;20052;-76
2023/10/27 05:42:00;;;;;;;8.15;4.20;;;9.90;99.90;;;;;;5035149;28;20052;-76
2023/10/27 05:44:26;;;;;;;9.02;4.50;;;9.90;99.90;;;;;;5037205;28;20056;-76
2023/10/27 05:46:51;;;;;;;9.27;4.30;;;9.90;99.90;;;;;;5034147;28;20022;-76
2023/10/27 05:49:17;;;;;;;7.38;3.83;;;9.90;99.90;;;;;;5035744;28;20045;-76
2023/10/27 05:51:43;;;;;;;10.15;4.00;;;9.90;99.90;;;;;;5034265;28;20088;-75
2023/10/27 05:54:08;;;;;;;7.22;3.97;;;9.80;99.90;;;;;;5038912;28;20038;-75
2023/10/27 05:56:34;;;;;;;8.48;4.38;;;9.90;99.90;;;;;;5039804;28;20034;-76
2023/10/27 05:58:59;;;;;;;10.13;3.88;;;9.90;99.90;;;;;;5039898;28;20132;-76
2023/10/27 06:01:25;;;;;;;12.18;4.57;;;9.90;99.90;;;;;;5040204;28;20556;-76
2023/10/27 06:03:53;;;;;;;7.95;3.90;;;9.90;99.90;;;;;;5040555;28;20034;-76
2023/10/27 06:06:19;;;;;;;7.63;3.97;;;9.90;99.90;;;;;;5038672;28;20112;-76
2023/10/27 06:08:45;;;;;;;10.73;4.32;;;9.80;99.90;;;;;;5038705;28;20087;-76
2023/10/27 06:11:11;;;;;;;8.35;3.78;;;9.80;99.90;;;;;;5042788;28;20382;-76
2023/10/27 06:13:37;;;;;;;10.27;3.88;;;9.90;99.90;;;;;;5042884;28;20052;-77
2023/10/27 06:16:04;;;;;;;7.18;3.90;;;9.80;99.90;;;;;;5044260;28;20454;-77
2023/10/27 06:18:29;;;;;;;8.10;3.90;;;9.90;99.90;;;;;;5044610;28;20064;-76
2023/10/27 06:20:55;;;;;;;7.07;3.60;;;9.80;99.90;;;;;;5044137;28;20017;-76
2023/10/27 06:23:20;;;;;;;8.70;3.83;;;9.90;99.90;;;;;;5042482;28;20056;-77
2023/10/27 06:25:46;;;;;;;9.75;4.50;;;9.90;99.90;;;;;;5039547;28;20442;-76
2023/10/27 06:28:12;;;;;;;11.07;4.53;;;9.90;99.90;;;;;;5041418;28;20025;-77
2023/10/27 06:30:38;;;;;;;9.85;4.32;;;9.90;99.90;;;;;;5041408;28;20029;-77
2023/10/27 06:33:03;;;;;;;8.05;4.43;;;9.90;99.90;;;;;;5041367;28;20028;-76
2023/10/27 06:35:29;;;;;;;10.52;5.07;;;9.80;99.90;;;;;;5042181;28;20068;-77
2023/10/27 06:37:55;;;;;;;9.00;4.85;;;9.80;99.90;;;;;;5043899;28;20036;-77
2023/10/27 06:40:22;;;;;;;13.82;5.70;;;9.70;99.90;;;;;;5039965;28;20053;-77
2023/10/27 06:42:48;;;;;;;14.25;6.53;;;9.80;99.90;;;;;;5042039;28;20083;-77
2023/10/27 06:45:14;;;;;;;15.95;6.13;;;9.80;99.90;;;;;;5042274;28;20044;-77
2023/10/27 06:47:40;;;;;;;15.50;6.32;;;9.80;99.90;;;;;;5043874;28;20029;-76
2023/10/27 06:50:06;;;;;;;12.65;6.57;;;9.80;99.90;;;;;;5042361;28;20120;-76
2023/10/27 06:52:33;;;;;;;12.80;6.90;;;9.80;99.90;;;;;;5042160;28;20029;-76
2023/10/27 06:55:00;;;;;;;12.77;6.68;;;9.80;99.90;;;;;;5041089;28;20045;-77
2023/10/27 06:57:25;;;;;;;17.13;7.03;;;9.90;99.90;;;;;;5043066;28;20089;-76
2023/10/27 06:59:56;;;;;;;16.23;7.50;;;9.90;99.90;;;;;;5041213;28;20076;-76
2023/10/27 07:02:23;;;;;;;16.20;7.68;;;9.80;99.90;;;;;;5042804;28;20033;-77
2023/10/27 07:04:49;;;;;;;17.70;7.90;;;9.80;99.90;;;;;;5036553;28;20033;-76
2023/10/27 07:07:15;;;;;;;17.27;8.05;;;9.80;99.90;;;;;;5043483;28;20017;-78
2023/10/27 07:09:41;;;;;;;16.45;7.72;;;9.80;99.90;;;;;;5042402;28;20041;-76
2023/10/27 07:12:08;;;;;;;21.88;7.70;;;9.90;99.90;;;;;;5040495;28;20140;-78
2023/10/27 07:14:38;;;;;;;17.85;8.05;;;9.80;99.90;;;;;;5043011;28;20033;-77
2023/10/27 07:17:04;;;;;;;18.30;8.18;;;9.90;99.90;;;;;;5041702;28;20025;-77
2023/10/27 07:19:37;;;;;;;17.95;7.75;;;9.80;99.90;;;;;;5039727;28;20132;-77
2023/10/27 07:22:10;;;;;;;16.42;8.07;;;9.90;99.90;;;;;;5039710;28;20029;-77
2023/10/27 07:24:36;;;;;;;17.05;7.93;;;9.90;99.90;;;;;;5042838;28;20022;-77
2023/10/27 07:27:01;;;;;;;18.25;8.15;;;9.90;99.90;;;;;;5042611;28;20037;-77
2023/10/27 07:29:27;;;;;;;21.00;8.93;;;9.90;99.90;;;;;;5041672;28;20069;-76
2023/10/27 07:31:53;;;;;;;19.08;8.57;;;9.90;99.90;;;;;;5030368;28;20045;-77
2023/10/27 07:34:19;;;;;;;21.13;8.95;;;9.90;99.90;;;;;;5035455;28;20096;-77
2023/10/27 07:36:45;;;;;;;17.02;8.68;;;9.90;99.90;;;;;;5038324;28;20085;-76
2023/10/27 07:39:11;;;;;;;20.40;8.85;;;9.80;99.90;;;;;;5040719;28;20030;-77
2023/10/27 07:41:37;;;;;;;20.67;8.77;;;9.90;99.90;;;;;;5042236;28;20175;-77
2023/10/27 07:44:03;;;;;;;19.50;8.70;;;9.90;99.90;;;;;;5040407;28;20021;-76
2023/10/27 07:46:29;;;;;;;17.40;8.55;;;9.90;99.90;;;;;;5036176;28;20029;-77
2023/10/27 07:48:54;;;;;;;16.15;8.30;;;9.80;99.90;;;;;;5038250;28;20065;-75
2023/10/27 07:51:20;;;;;;;15.85;8.07;;;9.90;99.90;;;;;;5040518;28;20029;-75
2023/10/27 07:53:46;;;;;;;15.27;7.05;;;9.90;99.90;;;;;;5040719;28;20064;-77
2023/10/27 07:56:11;;;;;;;17.65;7.20;;;10.00;99.90;;;;;;5031169;28;20043;-76
2023/10/27 07:58:38;;;;;;;14.43;6.80;;;9.90;99.90;;;;;;5035479;28;20057;-76
2023/10/27 08:01:05;;;;;;;17.48;6.38;;;9.90;99.90;;;;;;5039943;28;20106;-77
2023/10/27 08:03:32;;;;;;;11.95;6.60;;;9.90;99.90;;;;;;5039840;28;20025;-77
2023/10/27 08:05:57;;;;;;;13.32;6.32;;;9.90;99.90;;;;;;5039482;28;20025;-75
2023/10/27 08:08:23;;;;;;;11.02;6.28;;;10.00;99.90;;;;;;5039675;28;20398;-77
2023/10/27 08:10:49;;;;;;;13.00;6.13;;;10.00;99.90;;;;;;5035733;28;20037;-78
2023/10/27 08:13:20;;;;;;;13.18;6.60;;;10.00;99.90;;;;;;5038033;28;20093;-77
2023/10/27 08:15:46;;;;;;;14.05;6.38;;;10.10;99.90;;;;;;5040261;28;20021;-78
2023/10/27 08:18:13;;;;;;;11.25;6.28;;;10.10;99.90;;;;;;5037417;28;20040;-77
2023/10/27 08:20:39;;;;;;;12.07;6.35;;;10.10;99.90;;;;;;5035558;28;20033;-77
2023/10/27 08:23:05;;;;;;;10.98;5.93;;;10.00;99.90;;;;;;5034427;28;20030;-77
2023/10/27 08:25:31;;;;;;;15.40;6.20;;;10.10;99.90;;;;;;5038697;28;20029;-78
2023/10/27 08:27:56;;;;;;;11.10;5.72;;;10.10;99.90;;;;;;5036224;28;20037;-78
2023/10/27 08:30:22;;;;;;;10.55;6.07;;;10.20;99.90;;;;;;5036227;28;20093;-77
2023/10/27 08:32:47;;;;;;;12.63;6.00;;;10.10;99.90;;;;;;5035751;28;20049;-76
2023/10/27 08:35:13;;;;;;;12.95;6.68;;;10.10;99.90;;;;;;5039043;28;20029;-79
2023/10/27 08:37:38;;;;;;;11.57;5.88;;;10.20;99.90;;;;;;5040390;28;20037;-76
2023/10/27 08:40:12;;;;;;;14.15;6.65;;;10.00;99.90;;;;;;5041500;28;20043;-78
2023/10/27 08:42:44;;;;;;;13.65;6.43;;;10.10;99.90;;;;;;5038983;28;20029;-77
2023/10/27 08:45:10;;;;;;;12.55;6.80;;;10.20;99.90;;;;;;5035928;28;20128;-78
2023/10/27 08:47:42;;;;;;;12.23;6.78;;;10.20;99.90;;;;;;5034968;28;20032;-79
2023/10/27 08:50:09;;;;;;;14.40;7.25;;;10.20;99.90;;;;;;5038283;28;20037;-76
2023/10/27 08:52:34;;;;;;;14.98;6.72;;;10.20;99.90;;;;;;5039939;28;20567;-76
2023/10/27 08:55:02;;;;;;;14.23;7.28;;;10.20;99.90;;;;;;5034640;28;20025;-77
2023/10/27 08:57:28;;;;;;;11.88;6.85;;;10.20;99.90;;;;;;5037596;28;20034;-77
2023/10/27 08:59:55;;;;;;;15.75;6.95;;;10.20;99.90;;;;;;5040212;28;20028;-78
2023/10/27 09:02:31;;;;;;;14.90;7.10;;;10.20;99.90;;;;;;5040181;28;20041;-78
2023/10/27 09:05:08;;;;;;;18.73;7.60;;;10.20;99.90;;;;;;5039481;28;20072;-77
2023/10/27 09:07:35;;;;;;;15.45;7.50;;;10.20;99.90;;;;;;5039036;28;20014;-76
2023/10/27 09:10:02;;;;;;;13.63;7.20;;;10.30;99.90;;;;;;5040454;28;20045;-77
2023/10/27 09:12:30;;;;;;;15.10;7.28;;;10.20;99.90;;;;;;5037044;28;20048;-77
2023/10/27 09:15:00;;;;;;;15.15;7.35;;;10.10;99.90;;;;;;5036594;28;20028;-77
2023/10/27 09:17:29;;;;;;;14.07;6.90;;;10.20;99.90;;;;;;5039290;28;20021;-77
2023/10/27 09:20:08;;;;;;;16.58;7.70;;;10.20;99.90;;;;;;5039124;28;20025;-78
2023/10/27 09:22:36;;;;;;;15.90;7.70;;;10.20;99.90;;;;;;5040569;28;20469;-77
2023/10/27 09:25:17;;;;;;;16.50;7.03;;;10.20;99.90;;;;;;5040524;28;20029;-76
2023/10/27 09:27:44;;;;;;;16.95;8.10;;;10.10;99.90;;;;;;5038806;28;20048;-76
2023/10/27 09:30:27;;;;;;;19.80;8.40;;;10.10;99.90;;;;;;5038186;28;21016;-77
2023/10/27 09:32:54;;;;;;;16.70;7.93;;;10.20;99.90;;;;;;5039885;28;20056;-78
2023/10/27 09:35:20;;;;;;;17.42;8.30;;;10.20;99.90;;;;;;5040267;28;20040;-78
2023/10/27 09:37:49;;;;;;;14.48;7.60;;;10.10;99.90;;;;;;5036352;28;20025;-77
2023/10/27 09:40:15;;;;;;;14.23;7.78;;;10.20;99.90;;;;;;5037845;28;20077;-78
2023/10/27 09:42:43;;;;;;;16.10;8.32;;;10.20;99.90;;;;;;5038929;28;20030;-78
2023/10/27 09:45:16;;;;;;;14.70;8.18;;;10.10;99.90;;;;;;5038821;28;20139;-76
2023/10/27 09:47:43;;;;;;;16.67;7.70;;;10.20;99.90;;;;;;5038933;28;20022;-77
2023/10/27 09:50:14;;;;;;;16.58;7.55;;;10.10;99.90;;;;;;5037064;28;20029;-77
2023/10/27 09:52:43;;;;;;;20.50;8.32;;;10.20;99.90;;;;;;5039603;28;20014;-76
2023/10/27 09:55:12;;;;;;;13.60;7.65;;;10.20;99.90;;;;;;5038715;28;20034;-77
2023/10/27 09:57:39;;;;;;;23.10;8.98;;;10.20;99.90;;;;;;5039922;28;20021;-77
2023/10/27 10:00:08;;;;;;;18.10;8.35;;;10.30;99.90;;;;;;5037504;28;20025;-77
2023/10/27 10:02:35;;;;;;;16.20;8.32;;;10.20;99.90;;;;;;5039651;28;20056;-77
2023/10/27 10:05:01;;;;;;;14.80;8.25;;;10.20;99.90;;;;;;5037501;28;20064;-78
2023/10/27 10:07:33;;;;;;;17.40;8.45;;;10.10;99.90;;;;;;5038488;28;20029;-77
2023/10/27 10:10:20;;;;;;;18.85;8.23;;;10.30;99.90;;;;;;5040341;28;20037;-79
2023/10/27 10:13:12;;;;;;;16.30;8.20;;;10.30;99.90;;;;;;5039995;28;20015;-79
2023/10/27 10:15:44;;;;;;;16.85;7.80;;;10.30;99.90;;;;;;5033922;28;20037;-77
2023/10/27 10:18:19;;;;;;;18.85;8.25;;;10.30;99.90;;;;;;5037613;28;20026;-76
2023/10/27 10:20:45;;;;;;;18.30;8.52;;;10.30;99.90;;;;;;5039193;28;20059;-79
2023/10/27 10:23:15;;;;;;;17.75;8.27;;;10.40;99.90;;;;;;5039793;28;20085;-78
2023/10/27 10:25:54;;;;;;;17.02;8.43;;;10.30;99.90;;;;;;5040194;28;20030;-77
2023/10/27 10:28:20;;;;;;;18.42;8.88;;;10.50;99.90;;;;;;5037668;28;20410;-79
2023/10/27 10:30:47;;;;;;;17.02;8.63;;;10.40;99.90;;;;;;5038773;28;20025;-77
2023/10/27 10:33:19;;;;;;;21.10;8.55;;;10.40;99.90;;;;;;5037156;28;20030;-79
2023/10/27 10:35:46;;;;;;;17.95;7.95;;;10.40;99.90;;;;;;5037875;28;20100;-77
2023/10/27 10:38:36;;;;;;;20.15;8.52;;;10.40;99.90;;;;;;5037226;28;20056;-76
2023/10/27 10:41:02;;;;;;;18.88;8.98;;;10.40;99.90;;;;;;5029725;28;20081;-77
2023/10/27 10:43:36;;;;;;;17.70;9.00;;;10.40;99.90;;;;;;5039849;28;20033;-76
2023/10/27 10:46:03;;;;;;;18.23;8.80;;;10.50;99.90;;;;;;5036974;28;20453;-76
2023/10/27 10:48:34;;;;;;;19.27;8.85;;;10.40;99.90;;;;;;5038380;28;20041;-76
2023/10/27 10:53:55;;;;;;;19.70;9.02;;;10.50;99.90;;;;;;5038706;28;20036;-76
2023/10/27 10:56:21;;;;;;;19.73;8.70;;;10.40;99.90;;;;;;5040550;28;20035;-78
2023/10/27 10:58:47;;;;;;;17.70;8.65;;;10.50;99.90;;;;;;5043647;28;20049;-78
2023/10/27 11:01:20;;;;;;;19.75;8.98;;;10.50;99.90;;;;;;5042343;28;20029;-76
2023/10/27 11:03:48;;;;;;;18.38;9.30;;;10.50;99.90;;;;;;5042765;28;20061;-79
2023/10/27 11:06:14;;;;;;;17.70;8.30;;;10.50;99.90;;;;;;5040847;28;20022;-77
2023/10/27 11:08:40;;;;;;;16.50;8.45;;;10.50;99.90;;;;;;5041726;28;20072;-77
2023/10/27 11:11:13;;;;;;;19.23;9.20;;;10.50;99.90;;;;;;5042629;28;20045;-77
2023/10/27 11:13:41;;;;;;;20.42;8.90;;;10.50;99.90;;;;;;5041441;28;20033;-76
2023/10/27 11:16:15;;;;;;;16.75;8.48;;;10.60;99.90;;;;;;5040847;28;20029;-76
2023/10/27 11:18:42;;;;;;;18.60;9.30;;;10.60;99.90;;;;;;5041888;28;20036;-77
2023/10/27 11:21:19;;;;;;;18.17;9.30;;;10.60;99.90;;;;;;5040528;28;20486;-77
2023/10/27 11:23:49;;;;;;;19.92;9.18;;;10.60;99.90;;;;;;5041220;28;20026;-78
2023/10/27 11:26:18;;;;;;;18.70;8.80;;;10.60;99.90;;;;;;5042287;28;20024;-77
2023/10/27 11:28:45;;;;;;;19.52;9.55;;;10.70;99.90;;;;;;5042286;28;20033;-76
2023/10/27 11:31:19;;;;;;;21.30;9.65;;;10.70;99.90;;;;;;5041450;28;20048;-77
2023/10/27 11:34:03;;;;;;;;;;;10.70;99.90;;;;;;5042123;28;20061;-77
2023/10/27 11:36:44;;;;;;;21.38;9.90;;;10.60;99.90;;;;;;5039352;28;19952;-78
2023/10/27 11:39:17;;;;;;;22.38;10.80;;;10.70;99.90;;;;;;5041352;28;20047;-77
2023/10/27 11:41:51;;;;;;;23.77;10.60;;;10.70;99.90;;;;;;5040668;28;20095;-77
2023/10/27 11:44:18;;;;;;;21.23;10.38;;;10.70;99.90;;;;;;5042196;28;20056;-79
2023/10/27 11:46:48;;;;;;;22.60;9.95;;;10.70;99.90;;;;;;5042556;28;20030;-77
2023/10/27 11:49:14;;;;;;;21.70;10.32;;;10.80;99.90;;;;;;5041549;28;20111;-77
2023/10/27 11:51:45;;;;;;;22.52;10.55;;;10.80;99.90;;;;;;5041812;28;20044;-77
2023/10/27 11:54:11;;;;;;;22.30;11.05;;;10.80;99.90;;;;;;5041933;28;21179;-76
2023/10/27 11:56:37;;;;;;;23.85;11.18;;;10.80;99.90;;;;;;5040782;28;20021;-77
2023/10/27 11:59:03;;;;;;;22.20;11.40;;;10.80;99.90;;;;;;5040419;28;20045;-78
2023/10/27 12:01:29;;;;;;;23.70;10.50;;;10.80;99.90;;;;;;5042443;28;20044;-77
2023/10/27 12:03:54;;;;;;;23.73;11.10;;;10.90;99.90;;;;;;5041485;28;20030;-78
2023/10/27 12:06:20;;;;;;;21.95;10.90;;;10.80;99.90;;;;;;5040257;28;20488;-77
2023/10/27 12:08:45;;;;;;;28.23;11.20;;;10.80;99.90;;;;;;5042243;28;20050;-77
2023/10/27 12:11:14;;;;;;;23.50;10.95;;;10.80;99.90;;;;;;5040062;28;20025;-78
2023/10/27 12:13:47;;;;;;;27.80;11.52;;;10.70;99.90;;;;;;5040566;28;20555;-77
2023/10/27 12:16:13;;;;;;;26.70;12.52;;;10.70;99.90;;;;;;5040179;28;20063;-77
2023/10/27 12:18:43;;;;;;;25.38;11.98;;;10.70;99.90;;;;;;5041375;28;20350;-79
2023/10/27 12:21:09;;;;;;;26.00;11.73;;;10.80;99.90;;;;;;5040403;28;20641;-77
2023/10/27 12:23:35;;;;;;;21.85;11.23;;;10.60;99.90;;;;;;5040775;28;20021;-77
2023/10/27 12:26:01;;;;;;;26.52;11.50;;;10.60;99.90;;;;;;5039626;28;20162;-77
2023/10/27 12:28:27;;;;;;;22.00;11.32;;;10.50;99.90;;;;;;5040258;28;20033;-76
2023/10/27 12:30:54;;;;;;;21.95;11.05;;;10.60;99.90;;;;;;5041286;28;20037;-77
2023/10/27 12:33:21;;;;;;;24.00;10.75;;;10.60;99.90;;;;;;5040431;28;20116;-77
2023/10/27 12:35:50;;;;;;;21.45;11.07;;;10.60;99.90;;;;;;5040715;28;20057;-76
2023/10/27 12:38:19;;;;;;;21.88;10.88;;;10.60;99.90;;;;;;5038835;28;20035;-77
2023/10/27 12:40:47;;;;;;;21.63;10.75;;;10.70;99.90;;;;;;5040104;28;20477;-77
2023/10/27 12:43:17;;;;;;;24.90;11.70;;;10.60;99.90;;;;;;5040410;28;20021;-76